RUM3110 SBBR-SBCT
Flight info
| Callsign | RUM3110 |
|---|---|
| Flight time | 1h 31m |
| Altitude | 34000 |
| Route | DCT KUKOL UZ5 UMGUL DCT |
| Aircraft | A320/M-SDE3FGHIRWY/LB1 |
Departure
| Time | 2026-04-28 13:15 |
|---|---|
| Airport | Presidente Juscelino Kubitschek International Airport (SBBR) |
Arrival
| Time | 2026-04-28 14:46 |
|---|---|
| Airport | Curitiba-Afonso Pena International Airport (SBCT) |
| Time | Latitude | Longitude | Altitude | Speed | Heading |
|---|---|---|---|---|---|
| 2026-04-28 12:42 | -15.87187 | -47.91733 | 3477 ft | 0 kts | 266° |
| 2026-04-28 13:04 | -15.87187 | -47.91728 | 3477 ft | 3 kts | 266° |
| 2026-04-28 13:04 | -15.87185 | -47.91701 | 3477 ft | 4 kts | 260° |
| 2026-04-28 13:04 | -15.87178 | -47.91680 | 3477 ft | 4 kts | 200° |
| 2026-04-28 13:04 | -15.87156 | -47.91679 | 3474 ft | 4 kts | 176° |
| 2026-04-28 13:05 | -15.87135 | -47.91680 | 3477 ft | 0 kts | 176° |
| 2026-04-28 13:07 | -15.87153 | -47.91679 | 3477 ft | 9 kts | 175° |
| 2026-04-28 13:08 | -15.87222 | -47.91675 | 3475 ft | 9 kts | 177° |
| 2026-04-28 13:08 | -15.87283 | -47.91672 | 3476 ft | 8 kts | 174° |
| 2026-04-28 13:08 | -15.87370 | -47.91666 | 3470 ft | 20 kts | 171° |
| 2026-04-28 13:08 | -15.87517 | -47.91655 | 3467 ft | 21 kts | 178° |
| 2026-04-28 13:09 | -15.87666 | -47.91642 | 3462 ft | 19 kts | 175° |
| 2026-04-28 13:09 | -15.87740 | -47.91718 | 3461 ft | 16 kts | 264° |
| 2026-04-28 13:09 | -15.87747 | -47.91844 | 3463 ft | 20 kts | 263° |
| 2026-04-28 13:09 | -15.87758 | -47.91992 | 3463 ft | 21 kts | 266° |
| 2026-04-28 13:10 | -15.87767 | -47.92150 | 3466 ft | 24 kts | 267° |
| 2026-04-28 13:10 | -15.87776 | -47.92323 | 3469 ft | 24 kts | 268° |
| 2026-04-28 13:10 | -15.87780 | -47.92510 | 3471 ft | 28 kts | 262° |
| 2026-04-28 13:10 | -15.87803 | -47.92711 | 3472 ft | 25 kts | 265° |
| 2026-04-28 13:11 | -15.87814 | -47.92886 | 3475 ft | 23 kts | 269° |
| 2026-04-28 13:11 | -15.87827 | -47.93072 | 3474 ft | 28 kts | 263° |
| 2026-04-28 13:11 | -15.87838 | -47.93268 | 3480 ft | 27 kts | 268° |
| 2026-04-28 13:11 | -15.87847 | -47.93444 | 3486 ft | 24 kts | 264° |
| 2026-04-28 13:12 | -15.87857 | -47.93625 | 3495 ft | 25 kts | 264° |
| 2026-04-28 13:12 | -15.87869 | -47.93777 | 3504 ft | 17 kts | 267° |
| 2026-04-28 13:12 | -15.87878 | -47.93885 | 3511 ft | 13 kts | 264° |
| 2026-04-28 13:12 | -15.87891 | -47.93966 | 3515 ft | 9 kts | 241° |
| 2026-04-28 13:13 | -15.87934 | -47.93995 | 3510 ft | 6 kts | 193° |
| 2026-04-28 13:13 | -15.87961 | -47.93996 | 3510 ft | 2 kts | 181° |
| 2026-04-28 13:13 | -15.87967 | -47.93996 | 3510 ft | 2 kts | 181° |
| 2026-04-28 13:13 | -15.88039 | -47.93992 | 3514 ft | 9 kts | 167° |
| 2026-04-28 13:14 | -15.88059 | -47.93980 | 3515 ft | 3 kts | 128° |
| 2026-04-28 13:14 | -15.88063 | -47.93900 | 3514 ft | 27 kts | 81° |
| 2026-04-28 13:14 | -15.88030 | -47.93443 | 3487 ft | 99 kts | 86° |
| 2026-04-28 13:14 | -15.87971 | -47.92511 | 3473 ft | 156 kts | 86° |
| 2026-04-28 13:15 | -15.87890 | -47.91263 | 3791 ft | 174 kts | 87° |
| 2026-04-28 13:15 | -15.88197 | -47.90058 | 4329 ft | 184 kts | 128° |
| 2026-04-28 13:15 | -15.89310 | -47.89317 | 4627 ft | 201 kts | 158° |
| 2026-04-28 13:15 | -15.90731 | -47.88901 | 4845 ft | 223 kts | 167° |
| 2026-04-28 13:16 | -15.92361 | -47.88550 | 5006 ft | 253 kts | 167° |
| 2026-04-28 13:16 | -15.94151 | -47.88142 | 5394 ft | 272 kts | 166° |
| 2026-04-28 13:16 | -15.96012 | -47.87671 | 6095 ft | 278 kts | 164° |
| 2026-04-28 13:16 | -15.97873 | -47.87161 | 6893 ft | 282 kts | 163° |
| 2026-04-28 13:17 | -15.99776 | -47.86613 | 7705 ft | 285 kts | 163° |
| 2026-04-28 13:17 | -16.01694 | -47.86039 | 8458 ft | 289 kts | 163° |
| 2026-04-28 13:17 | -16.03656 | -47.85530 | 9029 ft | 294 kts | 174° |
| 2026-04-28 13:17 | -16.05661 | -47.85868 | 9183 ft | 296 kts | 206° |
| 2026-04-28 13:18 | -16.07190 | -47.87265 | 9419 ft | 298 kts | 240° |
| 2026-04-28 13:18 | -16.07832 | -47.89317 | 10121 ft | 303 kts | 261° |
| 2026-04-28 13:18 | -16.08013 | -47.91530 | 10565 ft | 317 kts | 268° |
| 2026-04-28 13:18 | -16.08014 | -47.93911 | 10745 ft | 339 kts | 271° |
| 2026-04-28 13:19 | -16.07999 | -47.96397 | 11235 ft | 347 kts | 266° |
| 2026-04-28 13:19 | -16.08373 | -47.98888 | 11848 ft | 351 kts | 252° |
| 2026-04-28 13:19 | -16.09344 | -48.01230 | 12493 ft | 354 kts | 241° |
| 2026-04-28 13:19 | -16.10515 | -48.03457 | 13140 ft | 357 kts | 240° |
| 2026-04-28 13:20 | -16.11729 | -48.05716 | 13767 ft | 360 kts | 240° |
| 2026-04-28 13:20 | -16.12959 | -48.07999 | 14355 ft | 364 kts | 240° |
| 2026-04-28 13:20 | -16.14203 | -48.10313 | 14943 ft | 368 kts | 240° |
| 2026-04-28 13:20 | -16.15449 | -48.12650 | 15512 ft | 371 kts | 241° |
| 2026-04-28 13:21 | -16.16695 | -48.15009 | 16076 ft | 374 kts | 241° |
| 2026-04-28 13:21 | -16.17948 | -48.17400 | 16604 ft | 378 kts | 241° |
| 2026-04-28 13:21 | -16.19209 | -48.19811 | 17129 ft | 381 kts | 242° |
| 2026-04-28 13:21 | -16.20482 | -48.22243 | 17635 ft | 384 kts | 241° |
| 2026-04-28 13:22 | -16.21772 | -48.24698 | 18158 ft | 387 kts | 240° |
| 2026-04-28 13:22 | -16.23314 | -48.27004 | 18635 ft | 391 kts | 229° |
| 2026-04-28 13:22 | -16.25297 | -48.28946 | 19120 ft | 394 kts | 217° |
| 2026-04-28 13:22 | -16.27647 | -48.30421 | 19594 ft | 396 kts | 204° |
| 2026-04-28 13:23 | -16.30212 | -48.31397 | 20070 ft | 399 kts | 198° |
| 2026-04-28 13:23 | -16.32863 | -48.32301 | 20528 ft | 402 kts | 198° |
| 2026-04-28 13:23 | -16.34659 | -48.32920 | 20831 ft | 404 kts | 198° |
| 2026-04-28 13:23 | -16.38206 | -48.34151 | 21412 ft | 408 kts | 199° |
| 2026-04-28 13:24 | -16.39999 | -48.34776 | 21711 ft | 409 kts | 199° |
| 2026-04-28 13:24 | -16.43628 | -48.36040 | 22269 ft | 413 kts | 199° |
| 2026-04-28 13:24 | -16.46369 | -48.36991 | 22686 ft | 416 kts | 199° |
| 2026-04-28 13:24 | -16.49122 | -48.37946 | 23100 ft | 419 kts | 199° |
| 2026-04-28 13:25 | -16.51898 | -48.38907 | 23495 ft | 421 kts | 199° |
| 2026-04-28 13:25 | -16.54658 | -48.39861 | 23875 ft | 424 kts | 199° |
| 2026-04-28 13:25 | -16.57464 | -48.40836 | 24246 ft | 426 kts | 199° |
| 2026-04-28 13:25 | -16.60299 | -48.41822 | 24617 ft | 429 kts | 199° |
| 2026-04-28 13:26 | -16.63132 | -48.42806 | 24975 ft | 431 kts | 199° |
| 2026-04-28 13:26 | -16.65989 | -48.43795 | 25330 ft | 433 kts | 199° |
| 2026-04-28 13:26 | -16.67895 | -48.44421 | 25558 ft | 435 kts | 195° |
| 2026-04-28 13:26 | -16.70878 | -48.44998 | 25896 ft | 438 kts | 186° |
| 2026-04-28 13:27 | -16.73924 | -48.45247 | 26244 ft | 440 kts | 185° |
| 2026-04-28 13:27 | -16.76989 | -48.45495 | 26581 ft | 442 kts | 185° |
| 2026-04-28 13:27 | -16.80061 | -48.45751 | 26895 ft | 444 kts | 185° |
| 2026-04-28 13:27 | -16.84151 | -48.46098 | 27301 ft | 446 kts | 185° |
| 2026-04-28 13:28 | -16.86209 | -48.46273 | 27498 ft | 448 kts | 185° |
| 2026-04-28 13:28 | -16.89320 | -48.46538 | 27792 ft | 450 kts | 185° |
| 2026-04-28 13:28 | -16.92452 | -48.46800 | 28088 ft | 452 kts | 185° |
| 2026-04-28 13:28 | -16.95592 | -48.47059 | 28372 ft | 453 kts | 185° |
| 2026-04-28 13:29 | -16.98746 | -48.47317 | 28653 ft | 455 kts | 185° |
| 2026-04-28 13:29 | -17.01925 | -48.47578 | 28930 ft | 457 kts | 185° |
| 2026-04-28 13:29 | -17.05105 | -48.47843 | 29198 ft | 459 kts | 185° |
| 2026-04-28 13:29 | -17.08291 | -48.48115 | 29458 ft | 461 kts | 185° |
| 2026-04-28 13:30 | -17.11495 | -48.48390 | 29721 ft | 462 kts | 185° |
| 2026-04-28 13:30 | -17.14672 | -48.48659 | 29967 ft | 464 kts | 185° |
| 2026-04-28 13:30 | -17.17906 | -48.48929 | 30221 ft | 466 kts | 185° |
| 2026-04-28 13:30 | -17.21149 | -48.49198 | 30463 ft | 467 kts | 185° |
| 2026-04-28 13:31 | -17.27660 | -48.49740 | 30938 ft | 470 kts | 185° |
| 2026-04-28 13:31 | -17.30921 | -48.50014 | 31168 ft | 471 kts | 185° |
| 2026-04-28 13:31 | -17.34188 | -48.50291 | 31411 ft | 471 kts | 186° |
| 2026-04-28 13:32 | -17.37447 | -48.50566 | 31722 ft | 470 kts | 185° |
| 2026-04-28 13:32 | -17.40698 | -48.50838 | 32041 ft | 468 kts | 185° |
| 2026-04-28 13:32 | -17.43944 | -48.51109 | 32353 ft | 467 kts | 185° |
| 2026-04-28 13:32 | -17.47147 | -48.51377 | 32663 ft | 466 kts | 185° |
| 2026-04-28 13:33 | -17.50387 | -48.51650 | 32970 ft | 465 kts | 186° |
| 2026-04-28 13:33 | -17.53613 | -48.51922 | 33272 ft | 464 kts | 185° |
| 2026-04-28 13:33 | -17.56829 | -48.52193 | 33568 ft | 463 kts | 185° |
| 2026-04-28 13:33 | -17.60044 | -48.52463 | 33864 ft | 462 kts | 185° |
| 2026-04-28 13:34 | -17.63206 | -48.52727 | 34118 ft | 461 kts | 185° |
| 2026-04-28 13:34 | -17.66387 | -48.52992 | 34180 ft | 455 kts | 185° |
| 2026-04-28 13:34 | -17.72643 | -48.53518 | 34183 ft | 449 kts | 186° |
| 2026-04-28 13:35 | -17.78856 | -48.54077 | 34182 ft | 448 kts | 186° |
| 2026-04-28 13:35 | -17.85072 | -48.54647 | 34184 ft | 448 kts | 186° |
| 2026-04-28 13:36 | -17.91279 | -48.55206 | 34183 ft | 447 kts | 186° |
| 2026-04-28 13:36 | -17.97449 | -48.55756 | 34180 ft | 447 kts | 186° |
| 2026-04-28 13:37 | -18.03644 | -48.56311 | 34177 ft | 447 kts | 186° |
| 2026-04-28 13:37 | -18.09861 | -48.56875 | 34174 ft | 447 kts | 186° |
| 2026-04-28 13:38 | -18.16066 | -48.57435 | 34173 ft | 447 kts | 186° |
| 2026-04-28 13:38 | -18.22225 | -48.57982 | 34170 ft | 447 kts | 186° |
| 2026-04-28 13:39 | -18.28430 | -48.58536 | 34172 ft | 447 kts | 186° |
| 2026-04-28 13:39 | -18.34490 | -48.59080 | 34183 ft | 443 kts | 186° |
| 2026-04-28 13:40 | -18.40633 | -48.59624 | 34191 ft | 445 kts | 186° |
| 2026-04-28 13:40 | -18.46788 | -48.60193 | 34192 ft | 447 kts | 186° |
| 2026-04-28 13:41 | -18.52991 | -48.60762 | 34193 ft | 448 kts | 186° |
| 2026-04-28 13:41 | -18.59205 | -48.61323 | 34191 ft | 448 kts | 186° |
| 2026-04-28 13:42 | -18.65410 | -48.61880 | 34187 ft | 448 kts | 186° |
| 2026-04-28 13:42 | -18.71615 | -48.62439 | 34184 ft | 448 kts | 186° |
| 2026-04-28 13:43 | -18.77821 | -48.63006 | 34182 ft | 448 kts | 186° |
| 2026-04-28 13:43 | -18.84025 | -48.63568 | 34181 ft | 448 kts | 186° |
| 2026-04-28 13:44 | -18.90237 | -48.64131 | 34180 ft | 448 kts | 186° |
| 2026-04-28 13:44 | -18.96445 | -48.64693 | 34178 ft | 447 kts | 186° |
| 2026-04-28 13:45 | -19.02613 | -48.65252 | 34174 ft | 448 kts | 186° |
| 2026-04-28 13:45 | -19.08825 | -48.65816 | 34174 ft | 448 kts | 186° |
| 2026-04-28 13:46 | -19.15040 | -48.66387 | 34171 ft | 448 kts | 186° |
| 2026-04-28 13:46 | -19.21259 | -48.66978 | 34171 ft | 448 kts | 187° |
| 2026-04-28 13:47 | -19.27466 | -48.67625 | 34172 ft | 448 kts | 187° |
| 2026-04-28 13:47 | -19.33679 | -48.68285 | 34165 ft | 448 kts | 187° |
| 2026-04-28 13:48 | -19.39890 | -48.68935 | 34165 ft | 448 kts | 187° |
| 2026-04-28 13:48 | -19.46057 | -48.69575 | 34163 ft | 448 kts | 187° |
| 2026-04-28 13:49 | -19.52263 | -48.70222 | 34162 ft | 448 kts | 187° |
| 2026-04-28 13:49 | -19.58473 | -48.70870 | 34160 ft | 449 kts | 187° |
| 2026-04-28 13:50 | -19.64685 | -48.71516 | 34158 ft | 448 kts | 187° |
| 2026-04-28 13:50 | -19.70898 | -48.72161 | 34156 ft | 448 kts | 187° |
| 2026-04-28 13:51 | -19.77115 | -48.72803 | 34156 ft | 449 kts | 187° |
| 2026-04-28 13:51 | -19.83332 | -48.73456 | 34151 ft | 449 kts | 187° |
| 2026-04-28 13:52 | -19.89552 | -48.74110 | 34147 ft | 449 kts | 187° |
| 2026-04-28 13:52 | -19.95781 | -48.74758 | 34149 ft | 450 kts | 187° |
| 2026-04-28 13:53 | -20.01972 | -48.75402 | 34151 ft | 450 kts | 187° |
| 2026-04-28 13:53 | -20.08193 | -48.76048 | 34144 ft | 449 kts | 187° |
| 2026-04-28 13:54 | -20.14424 | -48.76698 | 34135 ft | 449 kts | 187° |
| 2026-04-28 13:54 | -20.20638 | -48.77352 | 34133 ft | 449 kts | 188° |
| 2026-04-28 13:55 | -20.26867 | -48.78011 | 34131 ft | 450 kts | 187° |
| 2026-04-28 13:55 | -20.33096 | -48.78664 | 34129 ft | 450 kts | 187° |
| 2026-04-28 13:56 | -20.39332 | -48.79316 | 34130 ft | 450 kts | 187° |
| 2026-04-28 13:56 | -20.45569 | -48.79958 | 34133 ft | 451 kts | 187° |
| 2026-04-28 13:57 | -20.51809 | -48.80614 | 34131 ft | 450 kts | 188° |
| 2026-04-28 13:57 | -20.58038 | -48.81278 | 34126 ft | 450 kts | 188° |
| 2026-04-28 13:58 | -20.64283 | -48.81933 | 34123 ft | 450 kts | 188° |
| 2026-04-28 13:58 | -20.70477 | -48.82619 | 34122 ft | 450 kts | 189° |
| 2026-04-28 13:59 | -20.76676 | -48.83586 | 34124 ft | 450 kts | 191° |
| 2026-04-28 13:59 | -20.82851 | -48.84656 | 34124 ft | 450 kts | 191° |
| 2026-04-28 14:00 | -20.89036 | -48.85678 | 34125 ft | 450 kts | 191° |
| 2026-04-28 14:00 | -20.95237 | -48.86656 | 34123 ft | 450 kts | 191° |
| 2026-04-28 14:01 | -21.01437 | -48.87634 | 34123 ft | 450 kts | 191° |
| 2026-04-28 14:01 | -21.07634 | -48.88625 | 34124 ft | 450 kts | 191° |
| 2026-04-28 14:02 | -21.13831 | -48.89620 | 34123 ft | 450 kts | 191° |
| 2026-04-28 14:02 | -21.20020 | -48.90610 | 34125 ft | 450 kts | 191° |
| 2026-04-28 14:03 | -21.26215 | -48.91603 | 34121 ft | 450 kts | 191° |
| 2026-04-28 14:03 | -21.32401 | -48.92592 | 34118 ft | 450 kts | 191° |
| 2026-04-28 14:04 | -21.38561 | -48.93575 | 34116 ft | 450 kts | 191° |
| 2026-04-28 14:04 | -21.44760 | -48.94568 | 34115 ft | 450 kts | 191° |
| 2026-04-28 14:05 | -21.50961 | -48.95566 | 34115 ft | 450 kts | 191° |
| 2026-04-28 14:05 | -21.57149 | -48.96564 | 34117 ft | 450 kts | 191° |
| 2026-04-28 14:06 | -21.63338 | -48.97557 | 34116 ft | 450 kts | 191° |
| 2026-04-28 14:06 | -21.69458 | -48.98694 | 34117 ft | 448 kts | 194° |
| 2026-04-28 14:07 | -21.75525 | -49.00228 | 34118 ft | 448 kts | 197° |
| 2026-04-28 14:07 | -21.81572 | -49.01844 | 34114 ft | 447 kts | 196° |
| 2026-04-28 14:08 | -21.87639 | -49.03378 | 34112 ft | 448 kts | 195° |
| 2026-04-28 14:08 | -21.92728 | -49.04614 | 34117 ft | 448 kts | 195° |
| 2026-04-28 14:09 | -21.99794 | -49.06329 | 34120 ft | 448 kts | 195° |
| 2026-04-28 14:09 | -22.05866 | -49.07822 | 34122 ft | 448 kts | 195° |
| 2026-04-28 14:10 | -22.11937 | -49.09326 | 34122 ft | 447 kts | 196° |
| 2026-04-28 14:10 | -22.18004 | -49.10838 | 34122 ft | 447 kts | 196° |
| 2026-04-28 14:11 | -22.24075 | -49.12336 | 34123 ft | 448 kts | 195° |
| 2026-04-28 14:11 | -22.30146 | -49.13837 | 34123 ft | 448 kts | 196° |
| 2026-04-28 14:12 | -22.36222 | -49.15343 | 34124 ft | 448 kts | 196° |
| 2026-04-28 14:12 | -22.42278 | -49.16883 | 34124 ft | 447 kts | 197° |
| 2026-04-28 14:13 | -22.48296 | -49.18590 | 34126 ft | 447 kts | 198° |
| 2026-04-28 14:13 | -22.54259 | -49.20342 | 34127 ft | 447 kts | 198° |
| 2026-04-28 14:14 | -22.60263 | -49.22076 | 34128 ft | 447 kts | 197° |
| 2026-04-28 14:14 | -22.66299 | -49.23726 | 34125 ft | 447 kts | 197° |
| 2026-04-28 14:15 | -22.72336 | -49.25353 | 34126 ft | 447 kts | 197° |
| 2026-04-28 14:15 | -22.78362 | -49.26991 | 34126 ft | 447 kts | 197° |
| 2026-04-28 14:16 | -22.84392 | -49.28647 | 34124 ft | 447 kts | 197° |
| 2026-04-28 14:16 | -22.90412 | -49.30317 | 34117 ft | 447 kts | 197° |
| 2026-04-28 14:17 | -22.96433 | -49.31988 | 34112 ft | 447 kts | 197° |
| 2026-04-28 14:17 | -23.02461 | -49.33643 | 34113 ft | 447 kts | 197° |
| 2026-04-28 14:18 | -23.08445 | -49.35286 | 34113 ft | 446 kts | 197° |
| 2026-04-28 14:18 | -23.14465 | -49.36940 | 34115 ft | 446 kts | 197° |
| 2026-04-28 14:19 | -23.19510 | -49.38336 | 34119 ft | 446 kts | 198° |
| 2026-04-28 14:19 | -23.25504 | -49.39925 | 34118 ft | 446 kts | 196° |
| 2026-04-28 14:20 | -23.31577 | -49.41376 | 34117 ft | 447 kts | 195° |
| 2026-04-28 14:20 | -23.37657 | -49.42812 | 34119 ft | 447 kts | 196° |
| 2026-04-28 14:21 | -23.43725 | -49.44301 | 34126 ft | 447 kts | 197° |
| 2026-04-28 14:21 | -23.49712 | -49.46092 | 34134 ft | 445 kts | 200° |
| 2026-04-28 14:22 | -23.55652 | -49.48055 | 34145 ft | 445 kts | 200° |
| 2026-04-28 14:22 | -23.61590 | -49.49974 | 34151 ft | 445 kts | 200° |
| 2026-04-28 14:23 | -23.67574 | -49.51775 | 34152 ft | 446 kts | 198° |
| 2026-04-28 14:23 | -23.73650 | -49.53237 | 34155 ft | 450 kts | 189° |
| 2026-04-28 14:24 | -23.79902 | -49.53080 | 34156 ft | 454 kts | 178° |
| 2026-04-28 14:24 | -23.86202 | -49.52509 | 34135 ft | 451 kts | 179° |
| 2026-04-28 14:25 | -23.89299 | -49.52240 | 33700 ft | 442 kts | 179° |
| 2026-04-28 14:25 | -23.92348 | -49.51975 | 32942 ft | 435 kts | 179° |
| 2026-04-28 14:25 | -23.95349 | -49.51712 | 32172 ft | 430 kts | 179° |
| 2026-04-28 14:25 | -23.98329 | -49.51448 | 31697 ft | 427 kts | 179° |
| 2026-04-28 14:26 | -24.01284 | -49.51185 | 31244 ft | 424 kts | 179° |
| 2026-04-28 14:26 | -24.04211 | -49.50920 | 30783 ft | 421 kts | 179° |
| 2026-04-28 14:26 | -24.07120 | -49.50658 | 30324 ft | 418 kts | 178° |
| 2026-04-28 14:26 | -24.10010 | -49.50399 | 29872 ft | 415 kts | 178° |
| 2026-04-28 14:27 | -24.12877 | -49.50141 | 29430 ft | 412 kts | 178° |
| 2026-04-28 14:27 | -24.15691 | -49.49890 | 28996 ft | 409 kts | 178° |
| 2026-04-28 14:27 | -24.18518 | -49.49639 | 28484 ft | 405 kts | 179° |
| 2026-04-28 14:27 | -24.21321 | -49.49391 | 27924 ft | 402 kts | 179° |
| 2026-04-28 14:28 | -24.24090 | -49.49144 | 27329 ft | 398 kts | 179° |
| 2026-04-28 14:28 | -24.26852 | -49.48898 | 26870 ft | 396 kts | 178° |
| 2026-04-28 14:28 | -24.29593 | -49.48651 | 26414 ft | 393 kts | 178° |
| 2026-04-28 14:28 | -24.32317 | -49.48402 | 25982 ft | 390 kts | 178° |
| 2026-04-28 14:29 | -24.35015 | -49.48159 | 25537 ft | 388 kts | 178° |
| 2026-04-28 14:29 | -24.37695 | -49.47920 | 25090 ft | 385 kts | 178° |
| 2026-04-28 14:29 | -24.40363 | -49.47685 | 24628 ft | 382 kts | 178° |
| 2026-04-28 14:29 | -24.42976 | -49.47457 | 24183 ft | 380 kts | 179° |
| 2026-04-28 14:30 | -24.45602 | -49.47226 | 23736 ft | 377 kts | 178° |
| 2026-04-28 14:30 | -24.48209 | -49.46994 | 23306 ft | 375 kts | 178° |
| 2026-04-28 14:30 | -24.50797 | -49.46759 | 22878 ft | 372 kts | 178° |
| 2026-04-28 14:30 | -24.53368 | -49.46524 | 22457 ft | 369 kts | 178° |
| 2026-04-28 14:31 | -24.55920 | -49.46290 | 22048 ft | 367 kts | 178° |
| 2026-04-28 14:31 | -24.58453 | -49.46060 | 21643 ft | 363 kts | 178° |
| 2026-04-28 14:31 | -24.60956 | -49.45834 | 21081 ft | 360 kts | 178° |
| 2026-04-28 14:31 | -24.63445 | -49.45612 | 20541 ft | 357 kts | 178° |
| 2026-04-28 14:32 | -24.65915 | -49.45391 | 19995 ft | 353 kts | 178° |
| 2026-04-28 14:32 | -24.68358 | -49.45171 | 19532 ft | 351 kts | 178° |
| 2026-04-28 14:32 | -24.70783 | -49.44950 | 19151 ft | 349 kts | 178° |
| 2026-04-28 14:32 | -24.73193 | -49.44730 | 18782 ft | 347 kts | 178° |
| 2026-04-28 14:33 | -24.75589 | -49.44513 | 18409 ft | 344 kts | 178° |
| 2026-04-28 14:33 | -24.77973 | -49.44298 | 18048 ft | 342 kts | 178° |
| 2026-04-28 14:33 | -24.80304 | -49.44087 | 17683 ft | 340 kts | 178° |
| 2026-04-28 14:33 | -24.82640 | -49.43873 | 17264 ft | 335 kts | 178° |
| 2026-04-28 14:34 | -24.87278 | -49.43457 | 16442 ft | 334 kts | 178° |
| 2026-04-28 14:34 | -24.89589 | -49.43250 | 16087 ft | 332 kts | 178° |
| 2026-04-28 14:34 | -24.91889 | -49.43043 | 15733 ft | 331 kts | 178° |
| 2026-04-28 14:35 | -24.94177 | -49.42837 | 15384 ft | 329 kts | 178° |
| 2026-04-28 14:35 | -24.96455 | -49.42631 | 15036 ft | 327 kts | 178° |
| 2026-04-28 14:35 | -24.98720 | -49.42425 | 14691 ft | 325 kts | 178° |
| 2026-04-28 14:35 | -25.00977 | -49.42218 | 14343 ft | 324 kts | 178° |
| 2026-04-28 14:36 | -25.03219 | -49.42013 | 14016 ft | 323 kts | 178° |
| 2026-04-28 14:36 | -25.05457 | -49.41812 | 13690 ft | 321 kts | 178° |
| 2026-04-28 14:36 | -25.07643 | -49.41614 | 13291 ft | 317 kts | 178° |
| 2026-04-28 14:36 | -25.09831 | -49.41415 | 12646 ft | 314 kts | 178° |
| 2026-04-28 14:37 | -25.12012 | -49.41215 | 12109 ft | 315 kts | 178° |
| 2026-04-28 14:37 | -25.14185 | -49.41016 | 11774 ft | 313 kts | 177° |
| 2026-04-28 14:37 | -25.16350 | -49.40819 | 11431 ft | 311 kts | 177° |
| 2026-04-28 14:37 | -25.18499 | -49.40625 | 11122 ft | 307 kts | 177° |
| 2026-04-28 14:38 | -25.20588 | -49.40436 | 10990 ft | 296 kts | 177° |
| 2026-04-28 14:38 | -25.22609 | -49.40253 | 10863 ft | 288 kts | 177° |
| 2026-04-28 14:38 | -25.24571 | -49.40075 | 10736 ft | 278 kts | 177° |
| 2026-04-28 14:38 | -25.26452 | -49.39904 | 10495 ft | 266 kts | 177° |
| 2026-04-28 14:39 | -25.28243 | -49.39740 | 10321 ft | 250 kts | 177° |
| 2026-04-28 14:39 | -25.29930 | -49.39587 | 10068 ft | 239 kts | 177° |
| 2026-04-28 14:39 | -25.31571 | -49.39416 | 9663 ft | 235 kts | 170° |
| 2026-04-28 14:39 | -25.33130 | -49.38902 | 9237 ft | 234 kts | 155° |
| 2026-04-28 14:40 | -25.34503 | -49.37970 | 8805 ft | 231 kts | 139° |
| 2026-04-28 14:40 | -25.35293 | -49.37190 | 8523 ft | 229 kts | 134° |
| 2026-04-28 14:40 | -25.36772 | -49.35546 | 8116 ft | 212 kts | 133° |
| 2026-04-28 14:40 | -25.37751 | -49.34451 | 7977 ft | 190 kts | 133° |
| 2026-04-28 14:41 | -25.38660 | -49.33435 | 7623 ft | 182 kts | 133° |
| 2026-04-28 14:41 | -25.39543 | -49.32449 | 7207 ft | 179 kts | 133° |
| 2026-04-28 14:41 | -25.40376 | -49.31521 | 6984 ft | 164 kts | 132° |
| 2026-04-28 14:41 | -25.41155 | -49.30650 | 6673 ft | 160 kts | 133° |
| 2026-04-28 14:42 | -25.41940 | -49.29772 | 6325 ft | 157 kts | 132° |
| 2026-04-28 14:42 | -25.42702 | -49.28918 | 5985 ft | 154 kts | 132° |
| 2026-04-28 14:42 | -25.43454 | -49.28079 | 5607 ft | 157 kts | 133° |
| 2026-04-28 14:42 | -25.44215 | -49.27231 | 5278 ft | 153 kts | 134° |
| 2026-04-28 14:43 | -25.44956 | -49.26403 | 5026 ft | 150 kts | 134° |
| 2026-04-28 14:43 | -25.45690 | -49.25582 | 4822 ft | 150 kts | 134° |
| 2026-04-28 14:43 | -25.46419 | -49.24770 | 4607 ft | 149 kts | 134° |
| 2026-04-28 14:43 | -25.47151 | -49.23951 | 4416 ft | 149 kts | 135° |
| 2026-04-28 14:44 | -25.47876 | -49.23142 | 4217 ft | 147 kts | 134° |
| 2026-04-28 14:44 | -25.48599 | -49.22331 | 4020 ft | 148 kts | 134° |
| 2026-04-28 14:44 | -25.49318 | -49.21528 | 3818 ft | 147 kts | 134° |
| 2026-04-28 14:44 | -25.50031 | -49.20730 | 3626 ft | 146 kts | 134° |
| 2026-04-28 14:45 | -25.50744 | -49.19933 | 3432 ft | 146 kts | 134° |
| 2026-04-28 14:45 | -25.51455 | -49.19137 | 3241 ft | 144 kts | 133° |
| 2026-04-28 14:45 | -25.52161 | -49.18345 | 3048 ft | 145 kts | 134° |
| 2026-04-28 14:45 | -25.52833 | -49.17597 | 2988 ft | 119 kts | 135° |
| 2026-04-28 14:46 | -25.53289 | -49.17088 | 2992 ft | 68 kts | 134° |
| 2026-04-28 14:46 | -25.53500 | -49.16846 | 2990 ft | 23 kts | 135° |
| 2026-04-28 14:46 | -25.53602 | -49.16779 | 2991 ft | 10 kts | 201° |
| 2026-04-28 14:46 | -25.53617 | -49.16832 | 2990 ft | 9 kts | 270° |
| 2026-04-28 14:47 | -25.53612 | -49.16923 | 2990 ft | 0 kts | 275° |
| 2026-04-28 14:47 | -25.53588 | -49.16972 | 2990 ft | 24 kts | 308° |
| 2026-04-28 14:48 | -25.53490 | -49.17080 | 2991 ft | 15 kts | 316° |
| 2026-04-28 14:48 | -25.53480 | -49.17139 | 2991 ft | 5 kts | 226° |
| 2026-04-28 14:48 | -25.53491 | -49.17147 | 2991 ft | 1 kts | 217° |
| 2026-04-28 14:48 | -25.53500 | -49.17170 | 2990 ft | 4 kts | 256° |
| 2026-04-28 14:49 | -25.53510 | -49.17190 | 2991 ft | 1 kts | 230° |
| 2026-04-28 14:49 | -25.53525 | -49.17204 | 2993 ft | 4 kts | 215° |
| 2026-04-28 14:49 | -25.53557 | -49.17225 | 2993 ft | 5 kts | 210° |
| 2026-04-28 14:49 | -25.53563 | -49.17229 | 2993 ft | 0 kts | 209° |